sensor_id;sensor_type;location;lat;lon;timestamp;pressure;altitude;pressure_sealevel;temperature;humidity
6449;BME280;3257;52.298;13.690;2022-07-18T00:00:16;77417.41;;;-144.77;67.46
6449;BME280;3257;52.298;13.690;2022-07-18T00:02:43;77425.34;;;-144.77;67.60
6449;BME280;3257;52.298;13.690;2022-07-18T00:05:09;77425.34;;;-144.77;67.23
6449;BME280;3257;52.298;13.690;2022-07-18T00:07:36;77431.31;;;-144.77;67.28
6449;BME280;3257;52.298;13.690;2022-07-18T00:10:04;77425.34;;;-144.77;67.01
6449;BME280;3257;52.298;13.690;2022-07-18T00:12:30;77431.31;;;-144.77;67.19
6449;BME280;3257;52.298;13.690;2022-07-18T00:14:57;77443.25;;;-144.77;66.72
6449;BME280;3257;52.298;13.690;2022-07-18T00:17:24;77447.22;;;-144.77;66.49
6449;BME280;3257;52.298;13.690;2022-07-18T00:19:50;77439.25;;;-144.77;66.24
6449;BME280;3257;52.298;13.690;2022-07-18T00:22:17;77427.34;;;-144.77;65.88
6449;BME280;3257;52.298;13.690;2022-07-18T00:24:44;77425.34;;;-144.77;65.90
6449;BME280;3257;52.298;13.690;2022-07-18T00:27:10;77425.34;;;-144.77;66.32
6449;BME280;3257;52.298;13.690;2022-07-18T00:29:40;77421.38;;;-144.77;66.39
6449;BME280;3257;52.298;13.690;2022-07-18T00:32:08;77419.38;;;-144.77;66.78
6449;BME280;3257;52.298;13.690;2022-07-18T00:34:35;77423.38;;;-144.77;68.57
6449;BME280;3257;52.298;13.690;2022-07-18T00:37:02;77439.25;;;-144.77;68.99
6449;BME280;3257;52.298;13.690;2022-07-18T00:39:29;77433.31;;;-144.77;68.91
6449;BME280;3257;52.298;13.690;2022-07-18T00:41:55;77427.34;;;-144.77;68.32
6449;BME280;3257;52.298;13.690;2022-07-18T00:44:24;77425.34;;;-144.77;68.26
6449;BME280;3257;52.298;13.690;2022-07-18T00:46:56;77433.31;;;-144.77;69.06
6449;BME280;3257;52.298;13.690;2022-07-18T00:49:23;77423.38;;;-144.77;68.46
6449;BME280;3257;52.298;13.690;2022-07-18T00:51:50;77417.41;;;-144.77;68.77
6449;BME280;3257;52.298;13.690;2022-07-18T00:54:16;77417.41;;;-144.77;69.43
6449;BME280;3257;52.298;13.690;2022-07-18T00:56:44;77411.44;;;-144.77;69.59
6449;BME280;3257;52.298;13.690;2022-07-18T00:59:12;77415.41;;;-144.77;69.84
6449;BME280;3257;52.298;13.690;2022-07-18T01:01:39;77401.50;;;-144.77;69.34
6449;BME280;3257;52.298;13.690;2022-07-18T01:04:27;77399.50;;;-144.77;69.44
6449;BME280;3257;52.298;13.690;2022-07-18T01:06:54;77383.59;;;-144.77;69.31
6449;BME280;3257;52.298;13.690;2022-07-18T01:09:21;77379.63;;;-144.77;69.04
6449;BME280;3257;52.298;13.690;2022-07-18T01:11:47;77383.59;;;-144.77;67.87
6449;BME280;3257;52.298;13.690;2022-07-18T01:14:15;77405.47;;;-144.77;66.44
6449;BME280;3257;52.298;13.690;2022-07-18T01:16:42;77397.53;;;-144.77;66.33
6449;BME280;3257;52.298;13.690;2022-07-18T01:19:09;77411.44;;;-144.77;66.73
6449;BME280;3257;52.298;13.690;2022-07-18T01:21:36;77405.47;;;-144.77;64.79
6449;BME280;3257;52.298;13.690;2022-07-18T01:24:04;77407.47;;;-144.77;64.19
6449;BME280;3257;52.298;13.690;2022-07-18T01:26:31;77419.38;;;-144.77;65.39
6449;BME280;3257;52.298;13.690;2022-07-18T01:28:58;77427.34;;;-144.77;65.32
6449;BME280;3257;52.298;13.690;2022-07-18T01:31:25;77437.28;;;-144.77;65.59
6449;BME280;3257;52.298;13.690;2022-07-18T01:33:54;77441.25;;;-144.77;65.43
6449;BME280;3257;52.298;13.690;2022-07-18T01:36:21;77449.19;;;-144.77;65.11
6449;BME280;3257;52.298;13.690;2022-07-18T01:38:47;77451.19;;;-144.77;65.35
6449;BME280;3257;52.298;13.690;2022-07-18T01:41:14;77465.09;;;-144.77;65.53
6449;BME280;3257;52.298;13.690;2022-07-18T01:43:41;77471.06;;;-144.77;65.88
6449;BME280;3257;52.298;13.690;2022-07-18T01:46:09;77483.00;;;-144.77;65.79
6449;BME280;3257;52.298;13.690;2022-07-18T01:48:38;77461.13;;;-144.77;65.41
6449;BME280;3257;52.298;13.690;2022-07-18T01:51:05;77469.09;;;-144.77;65.74
6449;BME280;3257;52.298;13.690;2022-07-18T01:53:40;77477.03;;;-144.77;65.79
6449;BME280;3257;52.298;13.690;2022-07-18T01:56:08;77463.13;;;-144.77;65.67
6449;BME280;3257;52.298;13.690;2022-07-18T01:58:34;77475.03;;;-144.77;65.64
6449;BME280;3257;52.298;13.690;2022-07-18T02:01:02;77479.03;;;-144.77;65.61
6449;BME280;3257;52.298;13.690;2022-07-18T02:03:29;77475.03;;;-144.77;65.42
6449;BME280;3257;52.298;13.690;2022-07-18T02:05:55;77490.94;;;-144.77;66.07
6449;BME280;3257;52.298;13.690;2022-07-18T02:08:22;77504.84;;;-144.77;66.76
6449;BME280;3257;52.298;13.690;2022-07-18T02:10:49;77528.72;;;-144.77;67.84
6449;BME280;3257;52.298;13.690;2022-07-18T02:13:15;77524.72;;;-144.77;67.70
6449;BME280;3257;52.298;13.690;2022-07-18T02:15:44;77530.69;;;-144.77;68.57
6449;BME280;3257;52.298;13.690;2022-07-18T02:18:10;77536.66;;;-144.77;68.62
6449;BME280;3257;52.298;13.690;2022-07-18T02:20:37;77542.63;;;-144.77;68.93
6449;BME280;3257;52.298;13.690;2022-07-18T02:23:05;77552.56;;;-144.77;69.89
6449;BME280;3257;52.298;13.690;2022-07-18T02:25:31;77558.53;;;-144.77;69.79
6449;BME280;3257;52.298;13.690;2022-07-18T02:27:58;77560.50;;;-144.77;70.14
6449;BME280;3257;52.298;13.690;2022-07-18T02:30:25;77568.47;;;-144.77;70.32
6449;BME280;3257;52.298;13.690;2022-07-18T02:32:51;77576.41;;;-144.77;71.40
6449;BME280;3257;52.298;13.690;2022-07-18T02:35:18;77576.41;;;-144.77;71.37
6449;BME280;3257;52.298;13.690;2022-07-18T02:37:45;77572.44;;;-144.77;71.20
6449;BME280;3257;52.298;13.690;2022-07-18T02:40:12;77554.56;;;-144.77;70.64
6449;BME280;3257;52.298;13.690;2022-07-18T02:42:38;77558.53;;;-144.77;70.79
6449;BME280;3257;52.298;13.690;2022-07-18T02:45:06;77562.50;;;-144.77;71.22
6449;BME280;3257;52.298;13.690;2022-07-18T02:47:33;77572.44;;;-144.77;71.18
6449;BME280;3257;52.298;13.690;2022-07-18T02:50:00;77572.44;;;-144.77;71.21
6449;BME280;3257;52.298;13.690;2022-07-18T02:52:26;77576.41;;;-144.77;71.39
6449;BME280;3257;52.298;13.690;2022-07-18T02:54:53;77580.41;;;-144.77;71.56
6449;BME280;3257;52.298;13.690;2022-07-18T02:57:20;77588.34;;;-144.77;71.93
6449;BME280;3257;52.298;13.690;2022-07-18T02:59:46;77594.31;;;-144.77;72.69
6449;BME280;3257;52.298;13.690;2022-07-18T03:02:13;77592.31;;;-144.77;72.57
6449;BME280;3257;52.298;13.690;2022-07-18T03:04:40;77584.38;;;-144.77;72.30
6449;BME280;3257;52.298;13.690;2022-07-18T03:07:06;77594.31;;;-144.77;72.53
6449;BME280;3257;52.298;13.690;2022-07-18T03:09:33;77600.28;;;-144.77;72.54
6449;BME280;3257;52.298;13.690;2022-07-18T03:12:00;77606.22;;;-144.77;72.52
6449;BME280;3257;52.298;13.690;2022-07-18T03:14:26;77610.22;;;-144.77;72.65
6449;BME280;3257;52.298;13.690;2022-07-18T03:16:53;77604.25;;;-144.77;72.50
6449;BME280;3257;52.298;13.690;2022-07-18T03:19:20;77606.22;;;-144.77;72.59
6449;BME280;3257;52.298;13.690;2022-07-18T03:21:47;77616.16;;;-144.77;72.76
6449;BME280;3257;52.298;13.690;2022-07-18T03:24:15;77626.13;;;-144.77;73.36
6449;BME280;3257;52.298;13.690;2022-07-18T03:26:42;77636.06;;;-144.77;73.57
6449;BME280;3257;52.298;13.690;2022-07-18T03:29:10;77644.00;;;-144.77;74.24
6449;BME280;3257;52.298;13.690;2022-07-18T03:31:37;77646.00;;;-144.77;74.51
6449;BME280;3257;52.298;13.690;2022-07-18T03:34:04;77646.00;;;-144.77;74.79
6449;BME280;3257;52.298;13.690;2022-07-18T03:36:30;77646.00;;;-144.77;74.84
6449;BME280;3257;52.298;13.690;2022-07-18T03:38:57;77644.00;;;-144.77;75.30
6449;BME280;3257;52.298;13.690;2022-07-18T03:41:24;77636.06;;;-144.77;75.14
6449;BME280;3257;52.298;13.690;2022-07-18T03:43:51;77644.00;;;-144.77;75.37
6449;BME280;3257;52.298;13.690;2022-07-18T03:46:17;77644.00;;;-144.77;75.65
6449;BME280;3257;52.298;13.690;2022-07-18T03:48:44;77634.06;;;-144.77;75.50
6449;BME280;3257;52.298;13.690;2022-07-18T03:51:10;77638.03;;;-144.77;75.43
6449;BME280;3257;52.298;13.690;2022-07-18T03:53:37;77636.06;;;-144.77;75.62
6449;BME280;3257;52.298;13.690;2022-07-18T03:56:04;77636.06;;;-144.77;75.81
6449;BME280;3257;52.298;13.690;2022-07-18T03:58:30;77632.06;;;-144.77;76.05
6449;BME280;3257;52.298;13.690;2022-07-18T04:00:57;77624.13;;;-144.77;76.92
6449;BME280;3257;52.298;13.690;2022-07-18T04:03:24;77616.16;;;-144.77;76.42
6449;BME280;3257;52.298;13.690;2022-07-18T04:05:51;77616.16;;;-144.77;76.46
6449;BME280;3257;52.298;13.690;2022-07-18T04:08:17;77618.16;;;-144.77;76.63
6449;BME280;3257;52.298;13.690;2022-07-18T04:10:44;77610.22;;;-144.77;76.63
6449;BME280;3257;52.298;13.690;2022-07-18T04:13:11;77604.25;;;-144.77;76.55
6449;BME280;3257;52.298;13.690;2022-07-18T04:15:38;77608.22;;;-144.77;76.17
6449;BME280;3257;52.298;13.690;2022-07-18T04:18:06;77608.22;;;-144.77;76.52
6449;BME280;3257;52.298;13.690;2022-07-18T04:20:34;77588.34;;;-144.77;76.08
6449;BME280;3257;52.298;13.690;2022-07-18T04:23:03;77582.38;;;-144.77;76.02
6449;BME280;3257;52.298;13.690;2022-07-18T04:25:36;77570.44;;;-144.77;75.53
6449;BME280;3257;52.298;13.690;2022-07-18T04:28:04;77566.47;;;-144.77;74.66
6449;BME280;3257;52.298;13.690;2022-07-18T04:30:32;77560.50;;;-144.77;74.69
6449;BME280;3257;52.298;13.690;2022-07-18T04:33:04;77554.56;;;-144.77;74.70
6449;BME280;3257;52.298;13.690;2022-07-18T04:35:31;77550.56;;;-144.77;74.31
6449;BME280;3257;52.298;13.690;2022-07-18T04:37:58;77552.56;;;-144.77;74.06
6449;BME280;3257;52.298;13.690;2022-07-18T04:40:25;77540.63;;;-144.77;73.04
6449;BME280;3257;52.298;13.690;2022-07-18T04:42:51;77534.69;;;-144.77;73.02
6449;BME280;3257;52.298;13.690;2022-07-18T04:45:18;77526.72;;;-144.77;72.77
6449;BME280;3257;52.298;13.690;2022-07-18T04:47:49;77516.78;;;-144.77;72.50
6449;BME280;3257;52.298;13.690;2022-07-18T04:50:17;77512.81;;;-144.77;72.74
6449;BME280;3257;52.298;13.690;2022-07-18T04:52:45;77510.81;;;-144.77;72.41
6449;BME280;3257;52.298;13.690;2022-07-18T04:55:14;77494.91;;;-144.77;72.13
6449;BME280;3257;52.298;13.690;2022-07-18T04:57:41;77490.94;;;-144.77;71.59
6449;BME280;3257;52.298;13.690;2022-07-18T05:00:11;77477.03;;;-144.77;71.51
6449;BME280;3257;52.298;13.690;2022-07-18T05:02:46;77459.13;;;-144.77;69.86
6449;BME280;3257;52.298;13.690;2022-07-18T05:05:15;77445.22;;;-144.77;69.69
6449;BME280;3257;52.298;13.690;2022-07-18T05:07:43;77433.31;;;-144.77;69.12
6449;BME280;3257;52.298;13.690;2022-07-18T05:10:11;77427.34;;;-144.77;67.51
6449;BME280;3257;52.298;13.690;2022-07-18T05:12:39;77415.41;;;-144.77;66.91
6449;BME280;3257;52.298;13.690;2022-07-18T05:15:12;77387.59;;;-144.77;65.22
6449;BME280;3257;52.298;13.690;2022-07-18T05:17:40;77373.66;;;-144.77;64.27
6449;BME280;3257;52.298;13.690;2022-07-18T05:20:09;77351.81;;;-144.77;62.87
6449;BME280;3257;52.298;13.690;2022-07-18T05:22:36;77341.88;;;-144.77;63.09
6449;BME280;3257;52.298;13.690;2022-07-18T05:25:04;77325.97;;;-144.77;63.55
6449;BME280;3257;52.298;13.690;2022-07-18T05:27:32;77312.06;;;-144.77;62.42
6449;BME280;3257;52.298;13.690;2022-07-18T05:29:58;77312.06;;;-144.77;62.89
6449;BME280;3257;52.298;13.690;2022-07-18T05:32:29;77300.13;;;-144.77;62.73
6449;BME280;3257;52.298;13.690;2022-07-18T05:34:55;77282.25;;;-144.77;61.00
6449;BME280;3257;52.298;13.690;2022-07-18T05:37:22;77264.34;;;-144.77;60.38
6449;BME280;3257;52.298;13.690;2022-07-18T05:39:49;77242.50;;;-144.77;58.64
6449;BME280;3257;52.298;13.690;2022-07-18T05:42:19;77214.66;;;-144.77;56.97
6449;BME280;3257;52.298;13.690;2022-07-18T05:45:06;77198.75;;;-144.77;56.07
6449;BME280;3257;52.298;13.690;2022-07-18T05:47:33;77190.81;;;-144.77;56.77
6449;BME280;3257;52.298;13.690;2022-07-18T05:50:00;77172.94;;;-144.77;56.35
6449;BME280;3257;52.298;13.690;2022-07-18T05:52:26;77168.94;;;-144.77;56.35
6449;BME280;3257;52.298;13.690;2022-07-18T05:54:53;77157.03;;;-144.77;55.89
6449;BME280;3257;52.298;13.690;2022-07-18T05:57:19;77141.13;;;-144.77;58.34
6449;BME280;3257;52.298;13.690;2022-07-18T05:59:46;77133.19;;;-144.77;56.88
6449;BME280;3257;52.298;13.690;2022-07-18T06:02:12;77107.34;;;-144.77;55.33
6449;BME280;3257;52.298;13.690;2022-07-18T06:04:39;77101.38;;;-144.77;55.26
6449;BME280;3257;52.298;13.690;2022-07-18T06:07:26;77069.56;;;-144.77;54.49
6449;BME280;3257;52.298;13.690;2022-07-18T06:09:52;77069.56;;;-144.77;54.84
6449;BME280;3257;52.298;13.690;2022-07-18T06:12:20;77055.66;;;-144.77;54.86
6449;BME280;3257;52.298;13.690;2022-07-18T06:14:47;77033.81;;;-144.77;54.54
6449;BME280;3257;52.298;13.690;2022-07-18T06:17:13;77023.88;;;-144.77;54.67
6449;BME280;3257;52.298;13.690;2022-07-18T06:19:40;77004.00;;;-144.77;53.76
6449;BME280;3257;52.298;13.690;2022-07-18T06:22:08;76984.13;;;-144.77;53.73
6449;BME280;3257;52.298;13.690;2022-07-18T06:24:35;76968.22;;;-144.77;53.11
6449;BME280;3257;52.298;13.690;2022-07-18T06:27:02;76950.31;;;-144.77;53.44
6449;BME280;3257;52.298;13.690;2022-07-18T06:29:32;76936.41;;;-144.77;55.00
6449;BME280;3257;52.298;13.690;2022-07-18T06:31:58;76916.53;;;-144.77;51.95
6449;BME280;3257;52.298;13.690;2022-07-18T06:34:25;76896.66;;;-144.77;52.49
6449;BME280;3257;52.298;13.690;2022-07-18T06:36:51;76886.72;;;-144.77;52.21
6449;BME280;3257;52.298;13.690;2022-07-18T06:39:18;76866.84;;;-144.77;51.72
6449;BME280;3257;52.298;13.690;2022-07-18T06:41:45;76845.00;;;-144.77;51.63
6449;BME280;3257;52.298;13.690;2022-07-18T06:44:12;76833.06;;;-144.77;49.96
6449;BME280;3257;52.298;13.690;2022-07-18T06:46:38;76821.16;;;-144.77;48.39
6449;BME280;3257;52.298;13.690;2022-07-18T06:49:06;76815.19;;;-144.77;48.99
6449;BME280;3257;52.298;13.690;2022-07-18T06:51:33;76805.25;;;-144.77;47.42
6449;BME280;3257;52.298;13.690;2022-07-18T06:54:00;76793.34;;;-144.77;47.18
6449;BME280;3257;52.298;13.690;2022-07-18T06:56:27;76787.38;;;-144.77;46.80
6449;BME280;3257;52.298;13.690;2022-07-18T06:58:54;76767.50;;;-144.77;46.70
6449;BME280;3257;52.298;13.690;2022-07-18T07:01:20;76751.59;;;-144.77;45.26
6449;BME280;3257;52.298;13.690;2022-07-18T07:03:47;76743.66;;;-144.77;44.80
6449;BME280;3257;52.298;13.690;2022-07-18T07:06:14;76725.75;;;-144.77;45.20
6449;BME280;3257;52.298;13.690;2022-07-18T07:08:42;76723.78;;;-144.77;46.00
6449;BME280;3257;52.298;13.690;2022-07-18T07:11:09;76703.91;;;-144.77;45.66
6449;BME280;3257;52.298;13.690;2022-07-18T07:13:36;76693.97;;;-144.77;44.00
6449;BME280;3257;52.298;13.690;2022-07-18T07:16:03;76674.09;;;-144.77;43.84
6449;BME280;3257;52.298;13.690;2022-07-18T07:18:30;76662.16;;;-144.77;44.87
6449;BME280;3257;52.298;13.690;2022-07-18T07:20:56;76650.25;;;-144.77;44.19
6449;BME280;3257;52.298;13.690;2022-07-18T07:23:23;76646.28;;;-144.77;40.92
6449;BME280;3257;52.298;13.690;2022-07-18T07:25:52;76632.34;;;-144.77;41.52
6449;BME280;3257;52.298;13.690;2022-07-18T07:28:19;76620.44;;;-144.77;40.61
6449;BME280;3257;52.298;13.690;2022-07-18T07:30:45;76614.47;;;-144.77;41.32
6449;BME280;3257;52.298;13.690;2022-07-18T07:33:12;76598.56;;;-144.77;41.62
6449;BME280;3257;52.298;13.690;2022-07-18T07:35:45;76580.69;;;-144.77;40.81
6449;BME280;3257;52.298;13.690;2022-07-18T07:38:12;76564.78;;;-144.77;39.06
6449;BME280;3257;52.298;13.690;2022-07-18T07:40:46;76548.91;;;-144.77;40.12
6449;BME280;3257;52.298;13.690;2022-07-18T07:43:15;76540.94;;;-144.77;40.10
6449;BME280;3257;52.298;13.690;2022-07-18T07:45:43;76525.06;;;-144.77;39.46
6449;BME280;3257;52.298;13.690;2022-07-18T07:48:12;76515.13;;;-144.77;38.27
6449;BME280;3257;52.298;13.690;2022-07-18T07:50:38;76509.16;;;-144.77;38.41
6449;BME280;3257;52.298;13.690;2022-07-18T07:53:05;76515.13;;;-144.77;38.41
6449;BME280;3257;52.298;13.690;2022-07-18T07:55:32;76489.28;;;-144.77;37.58
6449;BME280;3257;52.298;13.690;2022-07-18T07:57:59;76481.34;;;-144.77;37.49
6449;BME280;3257;52.298;13.690;2022-07-18T08:00:26;76495.25;;;-144.77;36.65
6449;BME280;3257;52.298;13.690;2022-07-18T08:02:56;76473.38;;;-144.77;36.69
6449;BME280;3257;52.298;13.690;2022-07-18T08:05:27;76461.47;;;-144.77;36.48
6449;BME280;3257;52.298;13.690;2022-07-18T08:07:54;76455.50;;;-144.77;36.76
6449;BME280;3257;52.298;13.690;2022-07-18T08:10:21;76439.59;;;-144.77;36.46
6449;BME280;3257;52.298;13.690;2022-07-18T08:12:47;76427.69;;;-144.77;36.56
6449;BME280;3257;52.298;13.690;2022-07-18T08:15:14;76439.59;;;-144.77;35.93
6449;BME280;3257;52.298;13.690;2022-07-18T08:17:41;76425.69;;;-144.77;36.25
6449;BME280;3257;52.298;13.690;2022-07-18T08:20:13;76409.81;;;-144.77;37.17
6449;BME280;3257;52.298;13.690;2022-07-18T08:25:19;76354.16;;;-144.77;37.24
6449;BME280;3257;52.298;13.690;2022-07-18T08:27:46;76332.31;;;-144.77;37.24
6449;BME280;3257;52.298;13.690;2022-07-18T08:30:13;76306.47;;;-144.77;36.45
6449;BME280;3257;52.298;13.690;2022-07-18T08:32:39;76292.56;;;-144.77;38.14
6449;BME280;3257;52.298;13.690;2022-07-18T08:35:07;76306.47;;;-144.77;36.50
6449;BME280;3257;52.298;13.690;2022-07-18T08:37:34;76308.47;;;-144.77;36.00
6449;BME280;3257;52.298;13.690;2022-07-18T08:40:00;76292.56;;;-144.77;37.24
6449;BME280;3257;52.298;13.690;2022-07-18T08:42:27;76270.72;;;-144.77;36.61
6449;BME280;3257;52.298;13.690;2022-07-18T08:44:55;76268.72;;;-144.77;35.38
6449;BME280;3257;52.298;13.690;2022-07-18T08:47:22;76268.72;;;-144.77;35.72
6449;BME280;3257;52.298;13.690;2022-07-18T08:49:55;76246.88;;;-144.77;35.76
6449;BME280;3257;52.298;13.690;2022-07-18T08:52:22;76240.91;;;-144.77;35.23
6449;BME280;3257;52.298;13.690;2022-07-18T08:55:10;76223.03;;;-144.77;34.07
6449;BME280;3257;52.298;13.690;2022-07-18T08:57:50;76193.22;;;-144.77;33.88
6449;BME280;3257;52.298;13.690;2022-07-18T09:00:19;76157.44;;;-144.77;32.95
6449;BME280;3257;52.298;13.690;2022-07-18T09:02:56;76133.59;;;-144.77;34.11
6449;BME280;3257;52.298;13.690;2022-07-18T09:05:23;76115.72;;;-144.77;34.51
6449;BME280;3257;52.298;13.690;2022-07-18T09:08:13;76103.81;;;-144.77;33.21
6449;BME280;3257;52.298;13.690;2022-07-18T09:11:17;76107.78;;;-144.77;33.64
6449;BME280;3257;52.298;13.690;2022-07-18T09:18:09;76066.06;;;-144.77;34.03
6449;BME280;3257;52.298;13.690;2022-07-18T09:21:00;76038.22;;;-144.77;33.46
6449;BME280;3257;52.298;13.690;2022-07-18T09:23:33;76030.28;;;-144.77;34.05
6449;BME280;3257;52.298;13.690;2022-07-18T09:26:00;76008.44;;;-144.77;33.55
6449;BME280;3257;52.298;13.690;2022-07-18T09:28:27;75998.50;;;-144.77;34.25
6449;BME280;3257;52.298;13.690;2022-07-18T09:30:55;75982.59;;;-144.77;33.60
6449;BME280;3257;52.298;13.690;2022-07-18T09:33:22;75980.63;;;-144.77;33.83
6449;BME280;3257;52.298;13.690;2022-07-18T09:35:51;75964.72;;;-144.77;33.87
6449;BME280;3257;52.298;13.690;2022-07-18T09:38:20;75930.94;;;-144.77;32.19
6449;BME280;3257;52.298;13.690;2022-07-18T09:40:50;75928.97;;;-144.77;32.99
6449;BME280;3257;52.298;13.690;2022-07-18T09:43:22;75952.81;;;-144.77;33.21
6449;BME280;3257;52.298;13.690;2022-07-18T09:45:59;75978.63;;;-144.77;32.46
6449;BME280;3257;52.298;13.690;2022-07-18T09:48:31;76018.38;;;-144.77;31.35
6449;BME280;3257;52.298;13.690;2022-07-18T09:51:07;76046.19;;;-144.77;31.38
6449;BME280;3257;52.298;13.690;2022-07-18T09:56:41;76060.09;;;-144.77;32.45
6449;BME280;3257;52.298;13.690;2022-07-18T10:03:08;76012.41;;;-144.77;32.38
6449;BME280;3257;52.298;13.690;2022-07-18T10:05:37;76000.47;;;-144.77;31.52
6449;BME280;3257;52.298;13.690;2022-07-18T10:08:08;76012.41;;;-144.77;33.06
6449;BME280;3257;52.298;13.690;2022-07-18T10:10:53;75986.56;;;-144.77;32.19
6449;BME280;3257;52.298;13.690;2022-07-18T10:13:21;75968.69;;;-144.77;32.59
6449;BME280;3257;52.298;13.690;2022-07-18T10:15:50;75958.75;;;-144.77;33.18
6449;BME280;3257;52.298;13.690;2022-07-18T10:18:20;75926.97;;;-144.77;32.21
6449;BME280;3257;52.298;13.690;2022-07-18T10:20:52;75899.16;;;-144.77;32.44
6449;BME280;3257;52.298;13.690;2022-07-18T10:23:34;75871.34;;;-144.77;30.91
6449;BME280;3257;52.298;13.690;2022-07-18T10:26:24;75899.16;;;-144.77;30.58
6449;BME280;3257;52.298;13.690;2022-07-18T10:31:22;75917.03;;;-144.77;30.62
6449;BME280;3257;52.298;13.690;2022-07-18T10:39:52;75901.16;;;-144.77;30.39
6449;BME280;3257;52.298;13.690;2022-07-18T10:42:21;75891.22;;;-144.77;29.83
6449;BME280;3257;52.298;13.690;2022-07-18T10:44:50;75875.31;;;-144.77;30.60
6449;BME280;3257;52.298;13.690;2022-07-18T10:47:19;75873.31;;;-144.77;31.00
6449;BME280;3257;52.298;13.690;2022-07-18T11:00:24;75789.88;;;-144.77;30.31
6449;BME280;3257;52.298;13.690;2022-07-18T11:03:11;75775.97;;;-144.77;31.06
6449;BME280;3257;52.298;13.690;2022-07-18T11:05:53;75750.16;;;-144.77;30.38
6449;BME280;3257;52.298;13.690;2022-07-18T11:08:21;75724.31;;;-144.77;30.35
6449;BME280;3257;52.298;13.690;2022-07-18T11:13:40;75656.78;;;-144.77;29.99
6449;BME280;3257;52.298;13.690;2022-07-18T11:16:19;75648.84;;;-144.77;28.58
6449;BME280;3257;52.298;13.690;2022-07-18T11:21:43;75668.69;;;-144.77;29.61
6449;BME280;3257;52.298;13.690;2022-07-18T11:24:11;75680.63;;;-144.77;29.68
6449;BME280;3257;52.298;13.690;2022-07-18T11:26:45;75716.38;;;-144.77;29.05
6449;BME280;3257;52.298;13.690;2022-07-18T11:29:14;75694.53;;;-144.77;29.97
6449;BME280;3257;52.298;13.690;2022-07-18T11:31:49;75694.53;;;-144.77;29.39
6449;BME280;3257;52.298;13.690;2022-07-18T11:34:17;75704.47;;;-144.77;29.19
6449;BME280;3257;52.298;13.690;2022-07-18T11:36:45;75718.38;;;-144.77;30.01
6449;BME280;3257;52.298;13.690;2022-07-18T11:39:14;75716.38;;;-144.77;29.14
6449;BME280;3257;52.298;13.690;2022-07-18T11:41:41;75696.50;;;-144.77;29.50
6449;BME280;3257;52.298;13.690;2022-07-18T11:44:25;75682.59;;;-144.77;29.44
6449;BME280;3257;52.298;13.690;2022-07-18T11:47:03;75690.56;;;-144.77;29.17
6449;BME280;3257;52.298;13.690;2022-07-18T11:49:30;75666.72;;;-144.77;29.81
6449;BME280;3257;52.298;13.690;2022-07-18T11:51:57;75666.72;;;-144.77;29.53
6449;BME280;3257;52.298;13.690;2022-07-18T11:54:24;75668.69;;;-144.77;28.67
6449;BME280;3257;52.298;13.690;2022-07-18T11:56:53;75630.94;;;-144.77;29.55
6449;BME280;3257;52.298;13.690;2022-07-18T11:59:21;75619.03;;;-144.77;28.90
6449;BME280;3257;52.298;13.690;2022-07-18T12:01:48;75603.13;;;-144.77;29.08
6449;BME280;3257;52.298;13.690;2022-07-18T12:04:23;75595.19;;;-144.77;28.71
6449;BME280;3257;52.298;13.690;2022-07-18T12:09:39;75575.31;;;-144.77;29.72
6449;BME280;3257;52.298;13.690;2022-07-18T12:12:09;75577.31;;;-144.77;28.44
6449;BME280;3257;52.298;13.690;2022-07-18T12:15:01;75611.09;;;-144.77;28.23
6449;BME280;3257;52.298;13.690;2022-07-18T12:17:30;75619.03;;;-144.77;27.94
6449;BME280;3257;52.298;13.690;2022-07-18T12:20:14;75632.94;;;-144.77;28.75
6449;BME280;3257;52.298;13.690;2022-07-18T12:23:04;75611.09;;;-144.77;29.05
6449;BME280;3257;52.298;13.690;2022-07-18T12:25:55;75609.09;;;-144.77;28.27
6449;BME280;3257;52.298;13.690;2022-07-18T12:28:24;75567.38;;;-144.77;28.14
6449;BME280;3257;52.298;13.690;2022-07-18T12:30:52;75581.28;;;-144.77;27.97
6449;BME280;3257;52.298;13.690;2022-07-18T12:33:26;75557.44;;;-144.77;28.08
6449;BME280;3257;52.298;13.690;2022-07-18T12:35:57;75539.56;;;-144.77;29.21
6449;BME280;3257;52.298;13.690;2022-07-18T12:38:25;75527.66;;;-144.77;28.86
6449;BME280;3257;52.298;13.690;2022-07-18T12:45:56;75525.66;;;-144.77;27.76
6449;BME280;3257;52.298;13.690;2022-07-18T12:48:59;75464.06;;;-144.77;28.48
6449;BME280;3257;52.298;13.690;2022-07-18T12:52:24;75450.16;;;-144.77;27.95
6449;BME280;3257;52.298;13.690;2022-07-18T12:54:56;75430.31;;;-144.77;28.95
6449;BME280;3257;52.298;13.690;2022-07-18T12:57:30;75406.47;;;-144.77;27.91
6449;BME280;3257;52.298;13.690;2022-07-18T12:59:59;75430.31;;;-144.77;27.61
6449;BME280;3257;52.298;13.690;2022-07-18T13:02:26;75426.34;;;-144.77;27.93
6449;BME280;3257;52.298;13.690;2022-07-18T13:04:55;75386.59;;;-144.77;27.86
6449;BME280;3257;52.298;13.690;2022-07-18T13:07:22;75390.56;;;-144.77;27.41
6449;BME280;3257;52.298;13.690;2022-07-18T13:09:50;75398.53;;;-144.77;27.00
6449;BME280;3257;52.298;13.690;2022-07-18T13:12:18;75388.59;;;-144.77;27.45
6449;BME280;3257;52.298;13.690;2022-07-18T13:14:45;75448.19;;;-144.77;27.33
6449;BME280;3257;52.298;13.690;2022-07-18T13:17:12;75406.47;;;-144.77;28.37
6449;BME280;3257;52.298;13.690;2022-07-18T13:19:38;75398.53;;;-144.77;28.27
6449;BME280;3257;52.298;13.690;2022-07-18T13:22:05;75378.66;;;-144.77;27.71
6449;BME280;3257;52.298;13.690;2022-07-18T13:24:32;75376.69;;;-144.77;27.86
6449;BME280;3257;52.298;13.690;2022-07-18T13:27:01;75356.81;;;-144.77;28.27
6449;BME280;3257;52.298;13.690;2022-07-18T13:29:28;75362.75;;;-144.77;27.87
6449;BME280;3257;52.298;13.690;2022-07-18T13:31:55;75374.69;;;-144.77;28.00
6449;BME280;3257;52.298;13.690;2022-07-18T13:34:22;75329.00;;;-144.77;27.49
6449;BME280;3257;52.298;13.690;2022-07-18T13:36:51;75299.19;;;-144.77;27.09
6449;BME280;3257;52.298;13.690;2022-07-18T13:39:19;75327.00;;;-144.77;26.61
6449;BME280;3257;52.298;13.690;2022-07-18T13:41:46;75338.94;;;-144.77;27.19
6449;BME280;3257;52.298;13.690;2022-07-18T13:44:13;75323.03;;;-144.77;26.91
6449;BME280;3257;52.298;13.690;2022-07-18T13:46:40;75356.81;;;-144.77;26.77